Time;durP1;ratioP1;P1;durP2;ratioP2;P2;SDS_P1;SDS_P2;PMS_P1;PMS_P2;Temp;Humidity;BMP_temperature;BMP_pressure;BME280_temperature;BME280_humidity;BME280_pressure;Samples;Min_cycle;Max_cycle;Signal;HPM_P1;HPM_P2
2023/03/21 00:01:13;;;;;;;44.33;25.97;;;9.90;99.90;;;;;;2701731;39;21548;31
2023/03/21 00:03:52;;;;;;;49.80;28.35;;;9.90;99.90;;;;;;2602453;54;20022;31
2023/03/21 00:06:28;;;;;;;38.40;24.00;;;9.90;99.90;;;;;;2602075;54;20882;31
2023/03/21 00:09:05;;;;;;;36.33;22.67;;;9.90;99.90;;;;;;2621432;47;20120;31
2023/03/21 00:11:43;;;;;;;48.65;27.55;;;9.90;99.90;;;;;;2603458;54;20093;31
2023/03/21 00:14:24;;;;;;;45.90;25.85;;;9.90;99.90;;;;;;2604039;54;20030;31
2023/03/21 00:17:03;;;;;;;41.25;26.08;;;9.90;99.90;;;;;;2603615;46;20844;31
2023/03/21 00:19:45;;;;;;;36.40;23.63;;;9.90;99.90;;;;;;2603199;54;20034;31
2023/03/21 00:22:26;;;;;;;38.83;24.58;;;9.90;99.90;;;;;;2603200;54;20899;31
2023/03/21 00:25:07;;;;;;;50.40;28.17;;;9.90;99.90;;;;;;2603700;54;20034;31
2023/03/21 00:30:43;;;;;;;41.38;25.10;;;9.90;99.90;;;;;;2603997;54;20052;31
2023/03/21 00:33:20;;;;;;;64.68;32.78;;;9.90;99.90;;;;;;2603511;54;20839;31
2023/03/21 00:35:59;;;;;;;54.07;28.50;;;9.80;99.90;;;;;;2603007;54;20030;31
2023/03/21 00:38:43;;;;;;;47.55;27.85;;;9.80;99.90;;;;;;2603719;54;20779;31
2023/03/21 00:41:21;;;;;;;63.88;33.35;;;9.80;99.90;;;;;;2603763;54;20053;31
2023/03/21 00:44:16;;;;;;;55.80;32.55;;;9.80;99.90;;;;;;2603830;54;20871;31
2023/03/21 00:46:57;;;;;;;42.30;26.55;;;9.80;99.90;;;;;;2603945;54;20104;31
2023/03/21 00:49:41;;;;;;;48.10;29.75;;;9.80;99.90;;;;;;2720619;39;20364;31
2023/03/21 00:52:18;;;;;;;59.10;33.30;;;9.80;99.90;;;;;;2603602;54;20758;31
2023/03/21 00:55:15;;;;;;;75.90;33.63;;;9.80;99.90;;;;;;2622279;46;20040;31
2023/03/21 00:57:51;;;;;;;52.50;30.55;;;9.70;99.90;;;;;;2621919;46;20155;31
2023/03/21 01:00:38;;;;;;;59.80;34.40;;;9.70;99.90;;;;;;2603565;54;20048;31
2023/03/21 01:03:19;;;;;;;70.05;35.65;;;9.70;99.90;;;;;;2720627;39;20584;31
2023/03/21 01:08:54;;;;;;;84.80;41.97;;;9.70;99.90;;;;;;2603834;54;20089;31
2023/03/21 01:11:30;;;;;;;74.35;39.03;;;9.70;99.90;;;;;;2602769;54;20034;31
2023/03/21 01:14:05;;;;;;;84.78;40.78;;;9.60;99.90;;;;;;2602483;54;20108;31
2023/03/21 01:16:56;;;;;;;69.80;36.53;;;9.50;99.90;;;;;;2603574;54;20084;31
2023/03/21 01:19:36;;;;;;;;;;;9.60;99.90;;;;;;2603862;54;20030;31
2023/03/21 01:22:25;;;;;;;57.80;31.27;;;9.60;99.90;;;;;;2603667;54;19935;31
2023/03/21 01:25:01;;;;;;;71.32;34.45;;;9.50;99.90;;;;;;2603644;54;20912;31
2023/03/21 01:27:56;;;;;;;55.70;31.80;;;9.50;99.90;;;;;;2701969;39;20485;31
2023/03/21 01:30:32;;;;;;;;;;;9.50;99.90;;;;;;2603806;54;20057;31
2023/03/21 01:33:18;;;;;;;47.00;27.25;;;9.40;99.90;;;;;;2622354;46;20793;31
2023/03/21 01:35:58;;;;;;;47.05;28.35;;;9.40;99.90;;;;;;2602878;54;22412;31
2023/03/21 01:38:49;;;;;;;42.90;27.77;;;9.40;99.90;;;;;;2603641;54;20038;31
2023/03/21 01:41:28;;;;;;;44.17;26.07;;;9.30;99.90;;;;;;2603571;54;20026;31
2023/03/21 01:44:25;;;;;;;46.37;26.57;;;9.40;99.90;;;;;;2603494;54;20026;31
2023/03/21 01:47:02;;;;;;;46.60;27.30;;;9.30;99.90;;;;;;2773474;31;21731;31
2023/03/21 01:50:21;;;;;;;49.55;28.15;;;9.30;99.90;;;;;;2603686;54;20088;31
2023/03/21 01:53:08;;;;;;;54.58;30.05;;;9.30;99.90;;;;;;2603579;54;21698;31
2023/03/21 01:55:48;;;;;;;48.60;28.30;;;9.30;99.90;;;;;;2603792;54;20070;31
2023/03/21 01:58:36;;;;;;;42.80;26.30;;;9.30;99.90;;;;;;2603501;54;20924;31
2023/03/21 02:01:41;;;;;;;51.78;27.48;;;9.30;99.90;;;;;;2701761;39;21554;31
2023/03/21 02:04:21;;;;;;;46.58;26.27;;;9.30;99.90;;;;;;2603481;54;20037;31
2023/03/21 02:07:15;;;;;;;52.25;28.25;;;9.20;99.90;;;;;;2603401;54;19997;31
2023/03/21 02:10:03;;;;;;;49.95;27.55;;;9.20;99.90;;;;;;2621686;46;20065;31
2023/03/21 02:12:39;;;;;;;48.58;27.13;;;9.20;99.90;;;;;;2621709;46;20049;31
2023/03/21 02:15:20;;;;;;;48.83;26.98;;;9.10;99.90;;;;;;2621545;46;20048;31
2023/03/21 02:18:10;;;;;;;51.90;27.90;;;9.10;99.90;;;;;;2603470;54;20030;31
2023/03/21 02:21:06;;;;;;;44.67;25.33;;;9.10;99.90;;;;;;2621874;46;20033;31
2023/03/21 02:24:22;;;;;;;43.20;26.77;;;9.10;99.90;;;;;;2603434;54;20085;31
2023/03/21 02:27:05;;;;;;;47.40;26.23;;;9.10;99.90;;;;;;2603392;54;20093;31
2023/03/21 02:30:12;;;;;;;43.90;26.50;;;9.10;99.90;;;;;;2603427;54;20266;31
2023/03/21 02:33:15;;;;;;;48.15;26.50;;;9.10;99.90;;;;;;2603516;54;19960;31
2023/03/21 02:35:58;;;;;;;48.20;27.13;;;9.00;99.90;;;;;;2701877;39;21543;31
2023/03/21 02:38:53;;;;;;;43.60;25.15;;;9.00;99.90;;;;;;2602865;54;20585;31
2023/03/21 02:41:34;;;;;;;49.10;27.00;;;9.00;99.90;;;;;;2602683;54;20781;31
2023/03/21 02:44:17;;;;;;;50.70;27.43;;;9.00;99.90;;;;;;2603384;54;21773;31
2023/03/21 02:46:57;;;;;;;52.58;28.85;;;9.00;99.90;;;;;;2603241;54;20235;31
2023/03/21 02:49:48;;;;;;;57.53;29.40;;;9.00;99.90;;;;;;2603461;54;20026;31
2023/03/21 02:52:30;;;;;;;54.13;25.00;;;9.00;99.90;;;;;;2603336;54;20081;31
2023/03/21 02:55:23;;;;;;;60.65;29.25;;;9.00;99.90;;;;;;2621709;46;20033;31
2023/03/21 02:58:11;;;;;;;46.45;26.63;;;9.00;99.90;;;;;;2621549;46;20775;31
2023/03/21 03:01:00;;;;;;;46.58;26.58;;;9.00;99.90;;;;;;2603247;54;20027;31
2023/03/21 03:03:43;;;;;;;41.15;23.13;;;9.00;99.90;;;;;;2603344;54;20042;31
2023/03/21 03:06:19;;;;;;;47.40;26.10;;;9.00;99.90;;;;;;2603251;54;20119;31
2023/03/21 03:08:59;;;;;;;44.58;25.17;;;9.00;99.90;;;;;;2602984;54;20026;31
2023/03/21 03:11:40;;;;;;;52.75;27.98;;;9.00;99.90;;;;;;2603265;54;20092;31
2023/03/21 03:14:39;;;;;;;41.78;25.83;;;9.00;99.90;;;;;;2602615;54;20869;31
2023/03/21 03:17:42;;;;;;;41.13;24.48;;;9.00;99.90;;;;;;2603351;54;21437;31
2023/03/21 03:20:38;;;;;;;56.33;28.25;;;9.00;99.90;;;;;;2603001;54;20826;31
2023/03/21 03:23:20;;;;;;;42.30;24.87;;;9.00;99.90;;;;;;2603432;54;20038;31
2023/03/21 03:25:58;;;;;;;52.00;27.30;;;9.00;99.90;;;;;;2603263;54;20949;31
2023/03/21 03:28:40;;;;;;;54.63;29.48;;;9.00;99.90;;;;;;2603381;54;20018;31
2023/03/21 03:31:24;;;;;;;49.92;27.30;;;9.00;99.90;;;;;;2621565;46;20027;31
2023/03/21 03:34:10;;;;;;;49.05;27.35;;;9.00;99.90;;;;;;2701774;39;20504;31
2023/03/21 03:36:50;;;;;;;43.72;25.35;;;9.00;99.90;;;;;;2603170;54;21394;31
2023/03/21 03:39:27;;;;;;;48.70;26.48;;;9.00;99.90;;;;;;2621534;46;20022;31
2023/03/21 03:42:07;;;;;;;46.15;26.20;;;9.00;99.90;;;;;;2603063;54;20089;31
2023/03/21 03:45:10;;;;;;;50.58;28.08;;;9.00;99.90;;;;;;2603039;54;20065;31
2023/03/21 03:47:48;;;;;;;51.23;28.40;;;9.00;99.90;;;;;;2603068;54;20042;31
2023/03/21 03:53:10;;;;;;;52.22;27.35;;;9.00;99.90;;;;;;2603220;54;20031;31
2023/03/21 03:55:53;;;;;;;49.65;28.50;;;9.00;99.90;;;;;;2603159;54;20092;31
2023/03/21 03:58:30;;;;;;;52.53;28.77;;;9.00;99.90;;;;;;2603245;54;20031;31
2023/03/21 04:01:28;;;;;;;49.80;27.23;;;9.00;99.90;;;;;;2621964;47;20067;31
2023/03/21 04:04:06;;;;;;;48.33;27.05;;;9.00;99.90;;;;;;2701495;39;21638;31
2023/03/21 04:06:50;;;;;;;55.50;28.25;;;9.00;99.90;;;;;;2603213;54;20057;31
2023/03/21 04:09:30;;;;;;;67.05;31.75;;;9.00;99.90;;;;;;2701415;39;21743;31
2023/03/21 04:12:20;;;;;;;67.28;31.70;;;8.90;99.90;;;;;;2603127;54;20027;31
2023/03/21 04:15:13;;;;;;;55.63;28.80;;;8.90;99.90;;;;;;2603284;54;20034;31
2023/03/21 04:17:57;;;;;;;64.75;28.63;;;8.90;99.90;;;;;;2720221;39;20494;31
2023/03/21 04:20:34;;;;;;;45.80;25.45;;;8.90;99.90;;;;;;2621128;47;20034;31
2023/03/21 04:23:15;;;;;;;47.97;26.48;;;8.90;99.90;;;;;;2621533;47;20183;31
2023/03/21 04:25:55;;;;;;;57.15;30.10;;;8.90;99.90;;;;;;2621254;47;21584;31
2023/03/21 04:28:59;;;;;;;68.13;32.20;;;8.90;99.90;;;;;;2602870;54;20877;31
2023/03/21 04:32:02;;;;;;;58.30;29.35;;;8.90;99.90;;;;;;2602799;54;20026;31
2023/03/21 04:34:42;;;;;;;55.10;28.30;;;8.90;99.90;;;;;;2612944;47;20853;31
2023/03/21 04:37:20;;;;;;;62.05;29.55;;;8.90;99.90;;;;;;2602337;54;20943;31
2023/03/21 04:39:56;;;;;;;61.00;29.98;;;8.90;99.90;;;;;;2602957;54;20035;31
2023/03/21 04:42:33;;;;;;;71.75;32.63;;;8.80;99.90;;;;;;2602247;54;20038;31
2023/03/21 04:45:13;;;;;;;60.35;30.95;;;8.70;99.90;;;;;;2602893;54;20038;31
2023/03/21 04:47:56;;;;;;;59.47;30.25;;;8.80;99.90;;;;;;2602857;54;20060;31
2023/03/21 04:50:35;;;;;;;63.55;30.55;;;8.80;99.90;;;;;;2604452;47;20138;31
2023/03/21 04:53:11;;;;;;;69.18;31.00;;;8.80;99.90;;;;;;2602100;54;20031;31
2023/03/21 04:55:46;;;;;;;62.15;29.98;;;8.80;99.90;;;;;;2602090;54;20867;31
2023/03/21 04:58:27;;;;;;;82.83;33.37;;;8.80;99.90;;;;;;2602521;54;20029;31
2023/03/21 05:01:13;;;;;;;67.82;31.02;;;8.70;99.90;;;;;;2603003;54;20026;31
2023/03/21 05:03:49;;;;;;;69.22;32.80;;;8.70;99.90;;;;;;2602850;54;20031;31
2023/03/21 05:06:50;;;;;;;62.38;31.23;;;8.70;99.90;;;;;;2622032;46;20038;31
2023/03/21 05:09:26;;;;;;;59.40;30.10;;;8.70;99.90;;;;;;2720751;39;21559;31
2023/03/21 05:12:02;;;;;;;81.82;30.90;;;8.70;99.90;;;;;;2603513;54;20030;31
2023/03/21 05:14:45;;;;;;;70.35;32.25;;;8.70;99.90;;;;;;2622342;46;20078;31
2023/03/21 05:17:22;;;;;;;60.10;30.83;;;8.70;99.90;;;;;;2603900;54;20029;31
2023/03/21 05:20:03;;;;;;;73.25;31.38;;;8.70;99.90;;;;;;2622358;46;20107;31
2023/03/21 05:22:50;;;;;;;59.42;30.13;;;8.70;99.90;;;;;;2603886;54;20022;31
2023/03/21 05:25:34;;;;;;;70.60;31.17;;;8.70;99.90;;;;;;2603530;54;20074;31
2023/03/21 05:28:35;;;;;;;85.50;34.45;;;8.70;99.90;;;;;;2603722;54;20048;31
2023/03/21 05:31:17;;;;;;;66.00;32.45;;;8.70;99.90;;;;;;2610113;46;20022;31
2023/03/21 05:34:00;;;;;;;74.63;33.27;;;8.70;99.90;;;;;;2603240;54;20022;31
2023/03/21 05:36:38;;;;;;;71.03;33.17;;;8.70;99.90;;;;;;2602990;54;19950;31
2023/03/21 05:39:20;;;;;;;65.15;33.30;;;8.70;99.90;;;;;;2613846;46;20855;31
2023/03/21 05:42:10;;;;;;;93.90;36.30;;;8.70;99.90;;;;;;2603682;54;20899;31
2023/03/21 05:44:45;;;;;;;48.97;25.65;;;8.70;99.90;;;;;;2603925;54;20096;31
2023/03/21 05:47:34;;;;;;;52.45;27.35;;;9.00;99.90;;;;;;2701375;39;21332;31
2023/03/21 05:50:13;;;;;;;65.55;30.98;;;9.10;99.90;;;;;;2602725;54;20044;31
2023/03/21 05:52:58;;;;;;;65.03;32.20;;;9.10;99.90;;;;;;2603699;54;20026;31
2023/03/21 05:55:38;;;;;;;58.13;28.40;;;9.10;99.90;;;;;;2603674;54;20863;31
2023/03/21 05:58:19;;;;;;;62.70;31.02;;;9.10;99.90;;;;;;2603530;54;20029;31
2023/03/21 06:01:01;;;;;;;61.05;31.10;;;9.10;99.90;;;;;;2602836;54;20865;31
2023/03/21 06:03:43;;;;;;;63.28;30.73;;;9.10;99.90;;;;;;2603545;54;20041;31
2023/03/21 06:06:36;;;;;;;60.55;28.63;;;9.10;99.90;;;;;;2603468;54;20053;31
2023/03/21 06:09:21;;;;;;;82.00;34.03;;;9.10;99.90;;;;;;2603247;54;20026;31
2023/03/21 06:12:10;;;;;;;69.72;32.10;;;9.10;99.90;;;;;;2622247;46;20031;31
2023/03/21 06:14:50;;;;;;;63.72;31.65;;;9.00;99.90;;;;;;2603894;54;20026;31
2023/03/21 06:17:36;;;;;;;64.13;30.30;;;9.00;99.90;;;;;;2602565;54;20260;31
2023/03/21 06:20:18;;;;;;;83.72;33.50;;;9.00;99.90;;;;;;2603452;54;20089;31
2023/03/21 06:23:09;;;;;;;62.25;31.60;;;9.00;99.90;;;;;;2621895;46;20026;31
2023/03/21 06:25:47;;;;;;;66.15;31.55;;;9.00;99.90;;;;;;2603310;54;20585;31
2023/03/21 06:28:30;;;;;;;78.13;35.05;;;9.00;99.90;;;;;;2602925;54;21057;31
2023/03/21 06:31:10;;;;;;;60.30;30.83;;;9.10;99.90;;;;;;2602638;54;20030;31
2023/03/21 06:33:47;;;;;;;76.68;34.30;;;9.10;99.90;;;;;;2603395;54;20768;31
2023/03/21 06:36:26;;;;;;;80.60;36.08;;;9.10;99.90;;;;;;2602847;54;20034;31
2023/03/21 06:39:06;;;;;;;68.82;33.88;;;9.10;99.90;;;;;;2603468;54;20026;31
2023/03/21 06:41:48;;;;;;;65.00;32.13;;;9.10;99.90;;;;;;2701957;39;21508;31
2023/03/21 06:44:29;;;;;;;69.93;33.25;;;9.10;99.90;;;;;;2701768;39;21707;31
2023/03/21 06:47:14;;;;;;;60.88;32.10;;;9.10;99.90;;;;;;2603427;54;20022;31
2023/03/21 06:49:54;;;;;;;56.22;31.20;;;9.10;99.90;;;;;;2603252;54;20716;31
2023/03/21 06:52:39;;;;;;;53.53;30.02;;;9.20;99.90;;;;;;2603478;54;21570;31
2023/03/21 06:55:25;;;;;;;62.17;30.98;;;9.20;99.90;;;;;;2603283;54;20814;31
2023/03/21 06:58:02;;;;;;;67.80;32.73;;;9.20;99.90;;;;;;2603531;54;20596;31
2023/03/21 07:00:49;;;;;;;61.65;29.45;;;9.20;99.90;;;;;;2629729;31;20632;31
2023/03/21 07:03:26;;;;;;;56.45;29.85;;;9.20;99.90;;;;;;2621345;46;20415;31
2023/03/21 07:06:10;;;;;;;57.33;29.98;;;9.20;99.90;;;;;;2603472;54;20026;31
2023/03/21 07:08:47;;;;;;;59.60;29.70;;;9.20;99.90;;;;;;2621162;46;20793;31
2023/03/21 07:11:30;;;;;;;72.60;31.95;;;9.30;99.90;;;;;;2602446;54;20023;31
2023/03/21 07:14:12;;;;;;;60.80;29.92;;;9.30;99.90;;;;;;2603476;54;20108;31
2023/03/21 07:16:55;;;;;;;50.78;27.00;;;9.30;99.90;;;;;;2603187;54;20785;31
2023/03/21 07:22:03;;;;;;;50.40;27.20;;;9.30;99.90;;;;;;2602868;54;21228;31
2023/03/21 07:24:46;;;;;;;49.92;25.42;;;9.30;99.90;;;;;;2602473;54;20231;31
2023/03/21 07:30:12;;;;;;;50.15;28.25;;;9.30;99.90;;;;;;2603172;54;20045;31
2023/03/21 07:32:52;;;;;;;43.15;25.92;;;9.30;99.90;;;;;;2603372;54;20867;31
2023/03/21 07:35:29;;;;;;;45.53;25.17;;;9.40;99.90;;;;;;2602507;54;20034;31
2023/03/21 07:38:05;;;;;;;45.05;25.38;;;9.40;99.90;;;;;;2603312;54;20112;31
2023/03/21 07:40:45;;;;;;;40.75;24.00;;;9.40;99.90;;;;;;2700988;39;20543;31
2023/03/21 07:43:21;;;;;;;47.28;25.17;;;9.40;99.90;;;;;;2603054;54;20072;31
2023/03/21 07:46:07;;;;;;;43.45;24.60;;;9.40;99.90;;;;;;2603048;54;20894;31
2023/03/21 07:48:46;;;;;;;49.40;26.13;;;9.40;99.90;;;;;;2621104;46;20023;31
2023/03/21 07:51:22;;;;;;;50.57;25.33;;;9.40;99.90;;;;;;2603280;54;20627;31
2023/03/21 07:54:01;;;;;;;;;;;9.50;99.90;;;;;;2603311;54;20068;31
2023/03/21 07:56:41;;;;;;;45.25;25.70;;;9.50;99.90;;;;;;2621396;47;20779;31
2023/03/21 07:59:17;;;;;;;46.77;26.10;;;9.50;99.90;;;;;;2619933;47;20026;31
2023/03/21 08:01:53;;;;;;;50.47;26.20;;;9.60;99.90;;;;;;2602297;54;20258;31
2023/03/21 08:04:40;;;;;;;43.75;26.10;;;9.70;99.90;;;;;;2603031;54;20030;31
2023/03/21 08:07:23;;;;;;;47.22;25.33;;;9.80;99.90;;;;;;2621576;47;20027;31
2023/03/21 08:10:00;;;;;;;30.50;19.73;;;9.70;99.90;;;;;;2603061;54;20027;31
2023/03/21 08:12:35;;;;;;;33.75;20.70;;;9.70;99.90;;;;;;2603019;54;20030;31
2023/03/21 08:15:16;;;;;;;32.65;20.08;;;9.70;99.90;;;;;;2603016;54;20027;31
2023/03/21 08:17:51;;;;;;;32.40;19.00;;;9.80;99.90;;;;;;2602165;54;19950;31
2023/03/21 08:20:27;;;;;;;33.20;19.77;;;9.70;99.90;;;;;;2603177;54;20034;31
2023/03/21 08:23:07;;;;;;;32.03;20.13;;;9.70;99.90;;;;;;2701392;39;21452;31
2023/03/21 08:25:47;;;;;;;29.92;17.85;;;9.70;99.90;;;;;;2603038;54;21110;31
2023/03/21 08:28:23;;;;;;;29.73;18.52;;;9.60;99.90;;;;;;2603165;54;20056;31
2023/03/21 08:31:08;;;;;;;31.77;19.23;;;9.60;99.90;;;;;;2602134;54;20766;31
2023/03/21 08:33:49;;;;;;;32.55;18.15;;;9.60;99.90;;;;;;2622296;46;20620;31
2023/03/21 08:36:35;;;;;;;29.60;18.08;;;9.50;99.90;;;;;;2655574;31;20056;31
2023/03/21 08:39:14;;;;;;;26.40;16.70;;;9.50;99.90;;;;;;2603727;54;20909;31
2023/03/21 08:41:56;;;;;;;29.08;17.67;;;9.50;99.90;;;;;;2603838;54;20901;31
2023/03/21 08:44:37;;;;;;;31.38;18.85;;;9.40;99.90;;;;;;2604054;54;20093;31
2023/03/21 08:47:15;;;;;;;31.05;17.75;;;9.40;99.90;;;;;;2602913;54;21332;31
2023/03/21 08:49:57;;;;;;;35.70;19.47;;;9.50;99.90;;;;;;2603293;54;20577;31
2023/03/21 08:52:39;;;;;;;32.25;21.00;;;9.50;99.90;;;;;;2603867;54;20241;31
2023/03/21 08:55:21;;;;;;;34.75;21.55;;;9.60;99.90;;;;;;2603888;54;20030;31
2023/03/21 08:57:57;;;;;;;36.65;23.30;;;9.60;99.90;;;;;;2603867;54;20187;31
2023/03/21 09:00:42;;;;;;;29.63;20.02;;;9.60;99.90;;;;;;2603414;54;20030;31
2023/03/21 09:03:20;;;;;;;34.78;20.73;;;9.60;99.90;;;;;;2603420;54;20027;31
2023/03/21 09:06:03;;;;;;;30.97;21.40;;;9.70;99.90;;;;;;2622342;46;20023;31
2023/03/21 09:08:40;;;;;;;34.38;22.70;;;9.80;99.90;;;;;;2602786;54;19934;31
2023/03/21 09:11:24;;;;;;;34.05;22.88;;;9.90;99.90;;;;;;2603066;54;20031;31
2023/03/21 09:14:10;;;;;;;35.70;23.67;;;10.00;99.90;;;;;;2602912;54;20882;31
2023/03/21 09:16:49;;;;;;;33.53;21.80;;;10.00;99.90;;;;;;2603682;54;20860;31
2023/03/21 09:19:28;;;;;;;37.95;22.52;;;10.10;99.90;;;;;;2622042;46;20093;31
2023/03/21 09:22:16;;;;;;;29.63;20.93;;;10.10;99.90;;;;;;2603130;54;20588;31
2023/03/21 09:25:07;;;;;;;37.50;21.63;;;10.20;99.90;;;;;;2705862;39;20514;31
2023/03/21 09:27:54;;;;;;;33.43;22.03;;;10.30;99.90;;;;;;2603692;54;20038;31
2023/03/21 09:30:32;;;;;;;31.00;21.00;;;10.40;99.90;;;;;;2603703;54;20034;31
2023/03/21 09:33:12;;;;;;;30.65;19.58;;;10.50;99.90;;;;;;2622179;46;20081;31
2023/03/21 09:35:50;;;;;;;28.80;18.80;;;10.50;99.90;;;;;;2610277;46;20824;31
2023/03/21 09:38:29;;;;;;;27.85;18.08;;;10.70;99.90;;;;;;2701200;39;21701;31
2023/03/21 09:41:15;;;;;;;29.67;20.10;;;10.80;99.90;;;;;;2603721;54;20034;31
2023/03/21 09:44:21;;;;;;;33.30;21.15;;;10.80;99.90;;;;;;2606778;46;20838;31
2023/03/21 09:47:05;;;;;;;29.67;19.73;;;10.90;99.90;;;;;;2721009;39;21022;31
2023/03/21 09:49:44;;;;;;;29.27;20.20;;;10.90;99.90;;;;;;2603421;54;20077;31
2023/03/21 09:52:22;;;;;;;31.55;20.02;;;11.00;99.90;;;;;;2603635;54;20843;31
2023/03/21 09:55:01;;;;;;;30.30;13.30;;;11.10;99.90;;;;;;2603514;54;20865;31
2023/03/21 09:57:40;;;;;;;29.65;21.85;;;11.20;99.90;;;;;;2602648;54;20026;31
2023/03/21 10:00:20;;;;;;;32.92;22.65;;;11.20;99.90;;;;;;2603661;54;20030;31
2023/03/21 10:03:05;;;;;;;31.73;22.10;;;11.40;99.90;;;;;;2603466;54;20026;31
2023/03/21 10:05:45;;;;;;;31.45;22.75;;;11.50;99.90;;;;;;2603497;54;20038;31
2023/03/21 10:08:29;;;;;;;27.30;22.13;;;11.50;99.90;;;;;;2603468;54;20908;31
2023/03/21 10:11:06;;;;;;;32.00;22.88;;;11.60;99.90;;;;;;2602656;54;20036;31
2023/03/21 10:13:46;;;;;;;32.28;22.27;;;11.70;99.90;;;;;;2602912;54;20861;31
2023/03/21 10:16:29;;;;;;;31.65;22.20;;;11.70;99.90;;;;;;2602592;54;20030;31
2023/03/21 10:19:12;;;;;;;34.85;22.10;;;11.90;99.90;;;;;;2603337;54;20053;31
2023/03/21 10:21:49;;;;;;;32.58;22.85;;;12.00;99.90;;;;;;2603394;54;20069;31
2023/03/21 10:24:47;;;;;;;29.40;22.17;;;12.20;99.90;;;;;;2603642;54;20053;31
2023/03/21 10:27:28;;;;;;;30.25;22.80;;;12.40;99.90;;;;;;2603505;54;20564;31
2023/03/21 10:30:07;;;;;;;28.20;22.03;;;12.50;99.90;;;;;;2621557;46;20684;31
2023/03/21 10:32:43;;;;;;;38.78;23.92;;;12.60;99.90;;;;;;2603355;54;20037;31
2023/03/21 10:35:21;;;;;;;29.23;22.43;;;12.80;99.90;;;;;;2603443;54;20773;31
2023/03/21 10:37:57;;;;;;;30.65;23.75;;;12.80;99.90;;;;;;2602656;54;20991;31
2023/03/21 10:40:36;;;;;;;45.13;23.50;;;12.90;99.90;;;;;;2602675;54;20027;31
2023/03/21 10:43:33;;;;;;;33.88;24.35;;;12.90;99.90;;;;;;2621560;46;20038;31
2023/03/21 10:46:13;;;;;;;27.97;22.83;;;12.80;99.90;;;;;;2621502;46;20026;31
2023/03/21 10:48:47;;;;;;;31.00;23.33;;;12.80;99.90;;;;;;2603530;54;20916;31
2023/03/21 10:51:29;;;;;;;30.27;23.38;;;12.70;99.90;;;;;;2621429;46;20042;31
2023/03/21 10:54:09;;;;;;;30.05;23.08;;;12.70;99.90;;;;;;2720064;39;20509;31
2023/03/21 10:56:58;;;;;;;38.95;24.70;;;12.60;99.90;;;;;;2603481;54;21715;31
2023/03/21 10:59:42;;;;;;;35.33;23.33;;;12.60;99.90;;;;;;2621630;46;20027;31
2023/03/21 11:02:20;;;;;;;30.50;22.77;;;12.60;99.90;;;;;;2603453;54;20095;31
2023/03/21 11:05:13;;;;;;;30.05;23.92;;;12.50;99.90;;;;;;2603309;54;20156;31
2023/03/21 11:08:03;;;;;;;30.67;24.58;;;12.50;99.90;;;;;;2603287;54;20596;31
2023/03/21 11:10:55;;;;;;;34.13;24.87;;;12.50;99.90;;;;;;2603309;54;20542;31
2023/03/21 11:13:36;;;;;;;30.97;23.93;;;12.40;99.90;;;;;;2603503;54;20033;31
2023/03/21 11:16:20;;;;;;;33.17;24.83;;;12.30;99.90;;;;;;2602630;54;21124;31
2023/03/21 11:19:21;;;;;;;31.85;25.58;;;12.20;99.90;;;;;;2603355;54;20102;31
2023/03/21 11:22:00;;;;;;;31.55;25.75;;;12.10;99.90;;;;;;2621863;46;20651;31
2023/03/21 11:24:38;;;;;;;36.80;26.40;;;12.00;99.90;;;;;;2603452;54;20031;31
2023/03/21 11:27:16;;;;;;;35.88;26.35;;;12.00;99.90;;;;;;2603068;54;20606;31
2023/03/21 11:29:54;;;;;;;36.20;27.02;;;11.90;99.90;;;;;;2603390;54;20028;31
2023/03/21 11:32:36;;;;;;;38.63;27.33;;;11.90;99.90;;;;;;2603278;54;19950;31
2023/03/21 11:35:16;;;;;;;29.05;24.25;;;11.90;99.90;;;;;;2619224;46;20023;31
2023/03/21 11:37:55;;;;;;;51.45;25.85;;;12.00;99.90;;;;;;2603099;54;20914;31
2023/03/21 11:40:42;;;;;;;31.87;26.20;;;12.10;99.90;;;;;;2602998;54;20052;31
2023/03/21 11:43:30;;;;;;;35.63;26.58;;;12.20;99.90;;;;;;2603140;54;20699;31
2023/03/21 11:46:11;;;;;;;32.20;25.95;;;12.10;99.90;;;;;;2603140;54;20078;31
2023/03/21 11:48:53;;;;;;;36.10;27.67;;;12.10;99.90;;;;;;2602444;54;20936;31
2023/03/21 11:51:32;;;;;;;35.08;27.42;;;12.10;99.90;;;;;;2719717;39;21670;31
2023/03/21 11:54:09;;;;;;;32.47;26.02;;;12.10;99.90;;;;;;2603004;54;20022;31
2023/03/21 11:56:58;;;;;;;59.33;44.60;;;12.10;99.90;;;;;;2603029;54;20087;31
2023/03/21 11:59:44;;;;;;;39.83;27.93;;;12.10;99.90;;;;;;2602779;54;20875;31
2023/03/21 12:02:38;;;;;;;33.83;26.90;;;12.10;99.90;;;;;;2603070;54;20848;31
2023/03/21 12:05:22;;;;;;;32.95;27.02;;;12.10;99.90;;;;;;2621256;47;20030;31
2023/03/21 12:08:03;;;;;;;38.58;30.23;;;12.10;99.90;;;;;;2622155;47;20033;31
2023/03/21 12:10:53;;;;;;;44.10;32.00;;;12.10;99.90;;;;;;2622270;46;20868;31
2023/03/21 12:13:43;;;;;;;33.83;26.45;;;12.20;99.90;;;;;;2603725;54;20573;31
2023/03/21 12:16:27;;;;;;;32.83;27.10;;;12.30;99.90;;;;;;2604236;54;20027;31
2023/03/21 12:19:34;;;;;;;35.40;26.90;;;12.20;99.90;;;;;;2604484;54;20494;31
2023/03/21 12:22:10;;;;;;;28.45;24.20;;;12.30;99.90;;;;;;2613552;46;19931;31
2023/03/21 12:24:49;;;;;;;28.80;24.92;;;12.30;99.90;;;;;;2720850;39;20627;31
2023/03/21 12:27:35;;;;;;;33.17;24.00;;;12.30;99.90;;;;;;2603143;54;20883;31
2023/03/21 12:30:22;;;;;;;33.78;25.80;;;12.40;99.90;;;;;;2622571;46;20034;31
2023/03/21 12:33:04;;;;;;;31.70;24.70;;;12.40;99.90;;;;;;2603627;54;20030;31
2023/03/21 12:35:48;;;;;;;31.23;25.70;;;12.50;99.90;;;;;;2619763;46;20030;31
2023/03/21 12:38:26;;;;;;;27.17;21.93;;;12.50;99.90;;;;;;2621302;46;20081;31
2023/03/21 12:41:13;;;;;;;33.50;25.63;;;12.50;99.90;;;;;;2718230;39;20507;31
2023/03/21 12:43:52;;;;;;;30.23;25.43;;;12.50;99.90;;;;;;2622176;46;20105;31
2023/03/21 12:46:35;;;;;;;34.80;26.80;;;12.60;99.90;;;;;;2603994;54;20030;31
2023/03/21 12:49:12;;;;;;;33.92;26.70;;;12.60;99.90;;;;;;2702637;39;20485;31
2023/03/21 12:51:49;;;;;;;35.60;26.05;;;12.60;99.90;;;;;;2603644;54;20033;31
2023/03/21 12:54:30;;;;;;;31.45;24.90;;;12.70;99.90;;;;;;2603467;54;20029;31
2023/03/21 12:57:11;;;;;;;35.42;26.85;;;12.70;99.90;;;;;;2603776;54;20624;31
2023/03/21 13:02:28;;;;;;;35.25;26.05;;;12.70;99.90;;;;;;2622129;46;20031;31
2023/03/21 13:05:10;;;;;;;33.35;24.80;;;12.80;99.90;;;;;;2602955;54;20031;31
2023/03/21 13:07:50;;;;;;;34.50;26.67;;;12.80;99.90;;;;;;2602998;54;20884;31
2023/03/21 13:10:28;;;;;;;32.63;25.90;;;12.80;99.90;;;;;;2603564;54;20028;31
2023/03/21 13:13:12;;;;;;;31.10;25.33;;;12.80;99.90;;;;;;2603551;54;21737;31
2023/03/21 13:16:10;;;;;;;25.80;18.02;;;12.80;99.90;;;;;;2603441;54;20926;31
2023/03/21 13:18:58;;;;;;;24.80;17.00;;;12.90;99.90;;;;;;2606703;46;20035;31
2023/03/21 13:21:43;;;;;;;29.63;23.13;;;13.40;99.90;;;;;;2603876;54;20542;31
2023/03/21 13:24:31;;;;;;;30.45;23.85;;;13.50;99.90;;;;;;2603929;54;20101;31
2023/03/21 13:27:06;;;;;;;32.47;25.48;;;13.50;99.90;;;;;;2603491;54;20206;31
2023/03/21 13:29:48;;;;;;;30.80;25.02;;;13.40;99.90;;;;;;2603030;54;20882;31
2023/03/21 13:32:27;;;;;;;29.70;24.30;;;13.40;99.90;;;;;;2603415;54;21344;31
2023/03/21 13:35:16;;;;;;;32.67;25.60;;;13.40;99.90;;;;;;2603663;54;20259;31
2023/03/21 13:37:50;;;;;;;31.88;25.38;;;13.30;99.90;;;;;;2622070;46;20033;31
2023/03/21 13:40:30;;;;;;;32.00;24.70;;;13.10;99.90;;;;;;2603511;54;21050;31
2023/03/21 13:43:06;;;;;;;29.77;25.63;;;13.00;99.90;;;;;;2602888;54;20824;31
2023/03/21 13:45:48;;;;;;;34.80;24.50;;;13.10;99.90;;;;;;2603595;54;20752;31
2023/03/21 13:48:30;;;;;;;29.90;23.70;;;13.00;99.90;;;;;;2603447;54;20242;31
2023/03/21 13:51:06;;;;;;;30.05;22.50;;;13.00;99.90;;;;;;2622081;46;20030;31
2023/03/21 13:53:48;;;;;;;29.55;23.40;;;13.00;99.90;;;;;;2603403;54;20879;31
2023/03/21 13:56:29;;;;;;;30.02;22.20;;;13.00;99.90;;;;;;2603562;54;20095;31
2023/03/21 13:59:05;;;;;;;30.38;22.38;;;13.00;99.90;;;;;;2622040;46;20027;31
2023/03/21 14:01:44;;;;;;;26.45;21.70;;;13.00;99.90;;;;;;2603520;54;20026;31
2023/03/21 14:07:09;;;;;;;27.98;21.45;;;13.10;99.90;;;;;;2603594;54;19934;31
2023/03/21 14:09:49;;;;;;;29.25;22.60;;;13.10;99.90;;;;;;2603586;54;20038;31
2023/03/21 14:12:30;;;;;;;33.40;23.63;;;13.10;99.90;;;;;;2603339;54;20805;31
2023/03/21 14:15:12;;;;;;;27.90;22.40;;;13.10;99.90;;;;;;2622088;46;20242;31
2023/03/21 14:17:55;;;;;;;29.42;21.00;;;13.10;99.90;;;;;;2603417;54;20037;31
2023/03/21 14:20:37;;;;;;;27.75;21.20;;;13.00;99.90;;;;;;2603707;54;20093;31
2023/03/21 14:23:19;;;;;;;31.02;23.58;;;13.00;99.90;;;;;;2603540;54;20042;31